sensor_id;sensor_type;location;lat;lon;timestamp;temperature;humidity
13074;DHT22;6603;47.066;15.396;2023-02-08T00:00:21;-6.40;1.00
13074;DHT22;6603;47.066;15.396;2023-02-08T00:02:47;-6.40;1.00
13074;DHT22;6603;47.066;15.396;2023-02-08T00:05:13;-6.40;1.00
13074;DHT22;6603;47.066;15.396;2023-02-08T00:07:39;-6.30;1.00
13074;DHT22;6603;47.066;15.396;2023-02-08T00:10:06;-6.40;1.00
13074;DHT22;6603;47.066;15.396;2023-02-08T00:12:32;-6.10;1.00
13074;DHT22;6603;47.066;15.396;2023-02-08T00:14:58;-6.50;1.00
13074;DHT22;6603;47.066;15.396;2023-02-08T00:17:24;-6.70;1.00
13074;DHT22;6603;47.066;15.396;2023-02-08T00:19:50;-6.50;1.00
13074;DHT22;6603;47.066;15.396;2023-02-08T00:22:16;-6.30;1.00
13074;DHT22;6603;47.066;15.396;2023-02-08T00:24:42;-6.30;1.00
13074;DHT22;6603;47.066;15.396;2023-02-08T00:27:08;-6.60;1.00
13074;DHT22;6603;47.066;15.396;2023-02-08T00:29:34;-6.50;1.00
13074;DHT22;6603;47.066;15.396;2023-02-08T00:32:00;-6.70;1.00
13074;DHT22;6603;47.066;15.396;2023-02-08T00:34:26;-6.40;1.00
13074;DHT22;6603;47.066;15.396;2023-02-08T00:36:52;-6.50;1.00
13074;DHT22;6603;47.066;15.396;2023-02-08T00:39:18;-6.40;1.00
13074;DHT22;6603;47.066;15.396;2023-02-08T00:41:46;-6.70;1.00
13074;DHT22;6603;47.066;15.396;2023-02-08T00:44:12;-6.50;1.00
13074;DHT22;6603;47.066;15.396;2023-02-08T00:46:38;-6.20;1.00
13074;DHT22;6603;47.066;15.396;2023-02-08T00:49:04;-6.40;1.00
13074;DHT22;6603;47.066;15.396;2023-02-08T00:51:30;-6.30;1.00
13074;DHT22;6603;47.066;15.396;2023-02-08T00:53:56;-6.60;1.00
13074;DHT22;6603;47.066;15.396;2023-02-08T00:56:22;-6.50;1.00
13074;DHT22;6603;47.066;15.396;2023-02-08T00:58:48;-6.90;1.00
13074;DHT22;6603;47.066;15.396;2023-02-08T01:01:14;-7.00;1.00
13074;DHT22;6603;47.066;15.396;2023-02-08T01:03:41;-7.00;11.10
13074;DHT22;6603;47.066;15.396;2023-02-08T01:06:10;-7.00;1.00
13074;DHT22;6603;47.066;15.396;2023-02-08T01:08:37;-7.20;1.00
13074;DHT22;6603;47.066;15.396;2023-02-08T01:11:14;-7.20;1.00
13074;DHT22;6603;47.066;15.396;2023-02-08T01:13:40;-6.80;22.70
13074;DHT22;6603;47.066;15.396;2023-02-08T01:16:09;-6.90;1.00
13074;DHT22;6603;47.066;15.396;2023-02-08T01:18:36;-6.90;1.00
13074;DHT22;6603;47.066;15.396;2023-02-08T01:21:04;-6.80;1.00
13074;DHT22;6603;47.066;15.396;2023-02-08T01:23:30;-7.10;1.00
13074;DHT22;6603;47.066;15.396;2023-02-08T01:25:56;-6.80;1.00
13074;DHT22;6603;47.066;15.396;2023-02-08T01:28:22;-7.00;1.00
13074;DHT22;6603;47.066;15.396;2023-02-08T01:30:48;-6.90;1.00
13074;DHT22;6603;47.066;15.396;2023-02-08T01:33:14;-6.90;1.00
13074;DHT22;6603;47.066;15.396;2023-02-08T01:35:40;-7.00;1.00
13074;DHT22;6603;47.066;15.396;2023-02-08T01:38:06;-7.10;1.00
13074;DHT22;6603;47.066;15.396;2023-02-08T01:40:32;-7.30;1.00
13074;DHT22;6603;47.066;15.396;2023-02-08T01:42:58;-6.90;1.00
13074;DHT22;6603;47.066;15.396;2023-02-08T01:45:29;-7.20;1.00
13074;DHT22;6603;47.066;15.396;2023-02-08T01:50:53;-7.30;1.00
13074;DHT22;6603;47.066;15.396;2023-02-08T01:53:21;-6.90;1.00
13074;DHT22;6603;47.066;15.396;2023-02-08T01:55:52;-7.20;1.00
13074;DHT22;6603;47.066;15.396;2023-02-08T01:58:20;-7.10;1.00
13074;DHT22;6603;47.066;15.396;2023-02-08T02:00:47;-6.90;1.00
13074;DHT22;6603;47.066;15.396;2023-02-08T02:03:13;-6.90;1.00
13074;DHT22;6603;47.066;15.396;2023-02-08T02:05:43;-7.00;1.00
13074;DHT22;6603;47.066;15.396;2023-02-08T02:08:10;-7.20;1.00
13074;DHT22;6603;47.066;15.396;2023-02-08T02:10:38;-7.20;3.10
13074;DHT22;6603;47.066;15.396;2023-02-08T02:13:21;-7.30;1.00
13074;DHT22;6603;47.066;15.396;2023-02-08T02:15:49;-6.90;1.00
13074;DHT22;6603;47.066;15.396;2023-02-08T02:18:24;-7.30;1.00
13074;DHT22;6603;47.066;15.396;2023-02-08T02:23:47;-7.00;1.00
13074;DHT22;6603;47.066;15.396;2023-02-08T02:42:57;-7.20;1.00
13074;DHT22;6603;47.066;15.396;2023-02-08T02:49:11;-7.00;1.00
13074;DHT22;6603;47.066;15.396;2023-02-08T02:52:04;-7.50;1.00
13074;DHT22;6603;47.066;15.396;2023-02-08T02:57:16;-7.20;1.00
13074;DHT22;6603;47.066;15.396;2023-02-08T02:59:44;-7.40;1.00
13074;DHT22;6603;47.066;15.396;2023-02-08T03:02:12;-7.40;1.00
13074;DHT22;6603;47.066;15.396;2023-02-08T03:07:08;-7.40;1.00
13074;DHT22;6603;47.066;15.396;2023-02-08T03:12:29;-7.40;1.00
13074;DHT22;6603;47.066;15.396;2023-02-08T03:17:38;-7.50;1.00
13074;DHT22;6603;47.066;15.396;2023-02-08T03:20:17;-7.60;1.00
13074;DHT22;6603;47.066;15.396;2023-02-08T03:30:54;-7.40;1.00
13074;DHT22;6603;47.066;15.396;2023-02-08T03:33:51;-7.10;1.00
13074;DHT22;6603;47.066;15.396;2023-02-08T03:39:02;-7.70;1.00
13074;DHT22;6603;47.066;15.396;2023-02-08T03:41:33;-7.60;1.00
13074;DHT22;6603;47.066;15.396;2023-02-08T03:44:08;-7.80;1.00
13074;DHT22;6603;47.066;15.396;2023-02-08T03:47:15;-7.60;9.50
13074;DHT22;6603;47.066;15.396;2023-02-08T03:49:35;-7.60;1.00
13074;DHT22;6603;47.066;15.396;2023-02-08T03:52:05;-7.40;1.00
13074;DHT22;6603;47.066;15.396;2023-02-08T03:54:40;-7.30;1.00
13074;DHT22;6603;47.066;15.396;2023-02-08T03:57:14;-7.30;1.00
13074;DHT22;6603;47.066;15.396;2023-02-08T03:59:45;-7.50;1.00
13074;DHT22;6603;47.066;15.396;2023-02-08T04:02:16;-7.40;1.00
13074;DHT22;6603;47.066;15.396;2023-02-08T04:04:46;-7.50;1.00
13074;DHT22;6603;47.066;15.396;2023-02-08T04:07:13;-7.80;1.00
13074;DHT22;6603;47.066;15.396;2023-02-08T04:09:39;-7.40;1.00
13074;DHT22;6603;47.066;15.396;2023-02-08T04:12:05;-7.30;1.00
13074;DHT22;6603;47.066;15.396;2023-02-08T04:14:31;-7.60;1.00
13074;DHT22;6603;47.066;15.396;2023-02-08T04:16:57;-7.80;1.00
13074;DHT22;6603;47.066;15.396;2023-02-08T04:19:23;-7.50;8.50
13074;DHT22;6603;47.066;15.396;2023-02-08T04:21:49;-7.30;1.00
13074;DHT22;6603;47.066;15.396;2023-02-08T04:24:15;-7.50;1.00
13074;DHT22;6603;47.066;15.396;2023-02-08T04:26:41;-7.90;1.00
13074;DHT22;6603;47.066;15.396;2023-02-08T04:35:41;-7.60;1.00
13074;DHT22;6603;47.066;15.396;2023-02-08T04:40:34;-7.90;1.00
13074;DHT22;6603;47.066;15.396;2023-02-08T04:45:27;-7.90;26.50
13074;DHT22;6603;47.066;15.396;2023-02-08T04:47:57;-7.70;24.20
13074;DHT22;6603;47.066;15.396;2023-02-08T04:50:23;-8.10;1.00
13074;DHT22;6603;47.066;15.396;2023-02-08T04:52:50;-7.90;49.30
13074;DHT22;6603;47.066;15.396;2023-02-08T04:55:16;-7.60;1.00
13074;DHT22;6603;47.066;15.396;2023-02-08T04:57:42;-7.60;1.00
13074;DHT22;6603;47.066;15.396;2023-02-08T05:00:09;-7.60;1.00
13074;DHT22;6603;47.066;15.396;2023-02-08T05:02:35;-7.70;1.00
13074;DHT22;6603;47.066;15.396;2023-02-08T05:05:01;-7.60;1.00
13074;DHT22;6603;47.066;15.396;2023-02-08T05:07:27;-7.60;1.00
13074;DHT22;6603;47.066;15.396;2023-02-08T05:09:52;-7.60;1.00
13074;DHT22;6603;47.066;15.396;2023-02-08T05:12:18;-7.50;1.00
13074;DHT22;6603;47.066;15.396;2023-02-08T05:14:44;-7.60;1.00
13074;DHT22;6603;47.066;15.396;2023-02-08T05:17:10;-7.50;1.00
13074;DHT22;6603;47.066;15.396;2023-02-08T05:19:36;-7.40;1.00
13074;DHT22;6603;47.066;15.396;2023-02-08T05:22:02;-7.50;1.00
13074;DHT22;6603;47.066;15.396;2023-02-08T05:24:28;-7.50;3.20
13074;DHT22;6603;47.066;15.396;2023-02-08T05:26:54;-7.30;70.60
13074;DHT22;6603;47.066;15.396;2023-02-08T05:29:20;-7.20;31.00
13074;DHT22;6603;47.066;15.396;2023-02-08T05:31:46;-7.10;27.80
13074;DHT22;6603;47.066;15.396;2023-02-08T05:34:12;-6.70;19.40
13074;DHT22;6603;47.066;15.396;2023-02-08T05:36:38;-6.50;1.00
13074;DHT22;6603;47.066;15.396;2023-02-08T05:39:04;-6.50;1.00
13074;DHT22;6603;47.066;15.396;2023-02-08T05:41:30;-6.50;1.00
13074;DHT22;6603;47.066;15.396;2023-02-08T05:43:57;-6.50;1.00
13074;DHT22;6603;47.066;15.396;2023-02-08T05:46:23;-6.30;21.20
13074;DHT22;6603;47.066;15.396;2023-02-08T05:48:49;-6.10;27.90
13074;DHT22;6603;47.066;15.396;2023-02-08T05:51:15;-6.10;2.70
13074;DHT22;6603;47.066;15.396;2023-02-08T05:53:41;-5.80;1.00
13074;DHT22;6603;47.066;15.396;2023-02-08T05:56:09;-5.90;1.00
13074;DHT22;6603;47.066;15.396;2023-02-08T05:58:34;-6.10;1.00
13074;DHT22;6603;47.066;15.396;2023-02-08T06:01:00;-6.10;1.00
13074;DHT22;6603;47.066;15.396;2023-02-08T06:03:27;-6.20;25.70
13074;DHT22;6603;47.066;15.396;2023-02-08T06:05:53;-6.10;34.60
13074;DHT22;6603;47.066;15.396;2023-02-08T06:08:18;-5.80;13.20
13074;DHT22;6603;47.066;15.396;2023-02-08T06:10:47;-5.70;1.00
13074;DHT22;6603;47.066;15.396;2023-02-08T06:13:14;-5.70;1.00
13074;DHT22;6603;47.066;15.396;2023-02-08T06:15:40;-5.80;1.00
13074;DHT22;6603;47.066;15.396;2023-02-08T06:18:06;-5.90;1.00
13074;DHT22;6603;47.066;15.396;2023-02-08T06:20:34;-5.80;17.00
13074;DHT22;6603;47.066;15.396;2023-02-08T06:22:59;-5.50;1.00
13074;DHT22;6603;47.066;15.396;2023-02-08T06:25:26;-5.50;1.00
13074;DHT22;6603;47.066;15.396;2023-02-08T06:27:51;-5.50;1.00
13074;DHT22;6603;47.066;15.396;2023-02-08T06:30:17;-5.50;1.00
13074;DHT22;6603;47.066;15.396;2023-02-08T06:32:43;-5.30;1.00
13074;DHT22;6603;47.066;15.396;2023-02-08T06:35:09;-5.30;1.00
13074;DHT22;6603;47.066;15.396;2023-02-08T06:37:35;-5.20;1.00
13074;DHT22;6603;47.066;15.396;2023-02-08T06:40:01;-5.10;1.00
13074;DHT22;6603;47.066;15.396;2023-02-08T06:42:27;-5.10;1.00
13074;DHT22;6603;47.066;15.396;2023-02-08T06:44:53;-5.20;1.00
13074;DHT22;6603;47.066;15.396;2023-02-08T06:47:21;-5.20;1.00
13074;DHT22;6603;47.066;15.396;2023-02-08T06:49:47;-5.30;1.00
13074;DHT22;6603;47.066;15.396;2023-02-08T06:52:13;-5.30;1.00
13074;DHT22;6603;47.066;15.396;2023-02-08T06:54:39;-5.30;1.00
13074;DHT22;6603;47.066;15.396;2023-02-08T06:57:04;-5.30;1.00
13074;DHT22;6603;47.066;15.396;2023-02-08T06:59:33;-5.10;1.00
13074;DHT22;6603;47.066;15.396;2023-02-08T07:01:59;-5.10;1.00
13074;DHT22;6603;47.066;15.396;2023-02-08T07:04:24;-5.00;1.00
13074;DHT22;6603;47.066;15.396;2023-02-08T07:06:50;-4.70;1.00
13074;DHT22;6603;47.066;15.396;2023-02-08T07:09:16;-4.80;1.00
13074;DHT22;6603;47.066;15.396;2023-02-08T07:11:42;-4.70;1.00
13074;DHT22;6603;47.066;15.396;2023-02-08T07:14:12;-4.80;1.00
13074;DHT22;6603;47.066;15.396;2023-02-08T07:16:38;-4.80;1.00
13074;DHT22;6603;47.066;15.396;2023-02-08T07:19:04;-4.80;1.00
13074;DHT22;6603;47.066;15.396;2023-02-08T07:21:30;-4.80;1.00
13074;DHT22;6603;47.066;15.396;2023-02-08T07:23:56;-4.60;1.00
13074;DHT22;6603;47.066;15.396;2023-02-08T07:26:22;-4.70;99.90
13074;DHT22;6603;47.066;15.396;2023-02-08T07:28:48;-4.60;99.90
13074;DHT22;6603;47.066;15.396;2023-02-08T07:31:15;-4.30;1.00
13074;DHT22;6603;47.066;15.396;2023-02-08T07:33:42;-4.20;1.00
13074;DHT22;6603;47.066;15.396;2023-02-08T07:36:09;-4.30;88.10
13074;DHT22;6603;47.066;15.396;2023-02-08T07:38:36;-4.30;99.90
13074;DHT22;6603;47.066;15.396;2023-02-08T07:41:04;-4.20;99.90
13074;DHT22;6603;47.066;15.396;2023-02-08T07:43:30;-4.20;1.00
13074;DHT22;6603;47.066;15.396;2023-02-08T07:45:58;-3.90;1.00
13074;DHT22;6603;47.066;15.396;2023-02-08T07:48:23;-3.90;1.00
13074;DHT22;6603;47.066;15.396;2023-02-08T07:50:49;-3.90;1.00
13074;DHT22;6603;47.066;15.396;2023-02-08T07:53:15;-3.80;1.00
13074;DHT22;6603;47.066;15.396;2023-02-08T07:55:43;-3.50;1.00
13074;DHT22;6603;47.066;15.396;2023-02-08T07:58:09;-3.60;1.00
13074;DHT22;6603;47.066;15.396;2023-02-08T08:00:35;-3.40;99.90
13074;DHT22;6603;47.066;15.396;2023-02-08T08:03:01;-3.30;1.00
13074;DHT22;6603;47.066;15.396;2023-02-08T08:05:26;-3.30;1.00
13074;DHT22;6603;47.066;15.396;2023-02-08T08:07:52;-3.20;99.90
13074;DHT22;6603;47.066;15.396;2023-02-08T08:10:18;-3.20;99.90
13074;DHT22;6603;47.066;15.396;2023-02-08T08:12:44;-3.10;1.00
13074;DHT22;6603;47.066;15.396;2023-02-08T08:15:10;-3.00;99.90
13074;DHT22;6603;47.066;15.396;2023-02-08T08:17:36;-2.90;99.90
13074;DHT22;6603;47.066;15.396;2023-02-08T08:20:04;-2.80;99.90
13074;DHT22;6603;47.066;15.396;2023-02-08T08:22:30;-3.00;99.90
13074;DHT22;6603;47.066;15.396;2023-02-08T08:24:56;-3.00;99.90
13074;DHT22;6603;47.066;15.396;2023-02-08T08:27:23;-3.10;99.90
13074;DHT22;6603;47.066;15.396;2023-02-08T08:29:49;-3.10;1.00
13074;DHT22;6603;47.066;15.396;2023-02-08T08:32:15;-3.00;99.90
13074;DHT22;6603;47.066;15.396;2023-02-08T08:34:41;-2.80;1.00
13074;DHT22;6603;47.066;15.396;2023-02-08T08:37:07;-2.70;1.00
13074;DHT22;6603;47.066;15.396;2023-02-08T08:39:33;-2.70;1.00
13074;DHT22;6603;47.066;15.396;2023-02-08T08:42:00;-2.60;99.90
13074;DHT22;6603;47.066;15.396;2023-02-08T08:44:29;-2.50;1.00
13074;DHT22;6603;47.066;15.396;2023-02-08T08:46:56;-2.40;1.00
13074;DHT22;6603;47.066;15.396;2023-02-08T08:49:24;-2.40;99.90
13074;DHT22;6603;47.066;15.396;2023-02-08T08:51:50;-2.40;99.90
13074;DHT22;6603;47.066;15.396;2023-02-08T08:54:17;-2.40;1.00
13074;DHT22;6603;47.066;15.396;2023-02-08T08:56:44;-2.30;99.90
13074;DHT22;6603;47.066;15.396;2023-02-08T08:59:10;-2.40;99.90
13074;DHT22;6603;47.066;15.396;2023-02-08T09:01:36;-2.30;1.00
13074;DHT22;6603;47.066;15.396;2023-02-08T09:04:04;-2.10;99.90
13074;DHT22;6603;47.066;15.396;2023-02-08T09:06:30;-1.80;1.00
13074;DHT22;6603;47.066;15.396;2023-02-08T09:08:56;-1.70;70.90
13074;DHT22;6603;47.066;15.396;2023-02-08T09:11:22;-1.80;1.00
13074;DHT22;6603;47.066;15.396;2023-02-08T09:13:48;-2.00;1.00
13074;DHT22;6603;47.066;15.396;2023-02-08T09:16:21;-2.00;90.60
13074;DHT22;6603;47.066;15.396;2023-02-08T09:18:48;-2.00;99.90
13074;DHT22;6603;47.066;15.396;2023-02-08T09:21:19;-2.00;1.00
13074;DHT22;6603;47.066;15.396;2023-02-08T09:23:46;-1.90;1.00
13074;DHT22;6603;47.066;15.396;2023-02-08T09:26:14;-2.00;99.90
13074;DHT22;6603;47.066;15.396;2023-02-08T09:28:41;-1.80;99.90
13074;DHT22;6603;47.066;15.396;2023-02-08T09:34:03;-1.70;99.90
13074;DHT22;6603;47.066;15.396;2023-02-08T09:36:36;-1.70;99.90
13074;DHT22;6603;47.066;15.396;2023-02-08T09:47:36;-0.70;99.90
13074;DHT22;6603;47.066;15.396;2023-02-08T09:52:43;-0.60;1.00
13074;DHT22;6603;47.066;15.396;2023-02-08T09:55:28;-0.30;1.00
13074;DHT22;6603;47.066;15.396;2023-02-08T09:57:57;-0.40;1.00
13074;DHT22;6603;47.066;15.396;2023-02-08T10:00:32;-0.30;1.00
13074;DHT22;6603;47.066;15.396;2023-02-08T10:03:00;-0.20;99.90
13074;DHT22;6603;47.066;15.396;2023-02-08T10:05:29;0.00;1.00
13074;DHT22;6603;47.066;15.396;2023-02-08T10:07:56;0.00;1.00
13074;DHT22;6603;47.066;15.396;2023-02-08T10:10:34;0.10;99.90
13074;DHT22;6603;47.066;15.396;2023-02-08T10:13:09;0.20;99.90
13074;DHT22;6603;47.066;15.396;2023-02-08T10:18:37;0.00;99.90
13074;DHT22;6603;47.066;15.396;2023-02-08T10:25:08;0.20;99.90
13074;DHT22;6603;47.066;15.396;2023-02-08T10:27:16;0.30;99.90
13074;DHT22;6603;47.066;15.396;2023-02-08T10:29:51;0.40;99.90
13074;DHT22;6603;47.066;15.396;2023-02-08T10:32:44;0.30;99.90
13074;DHT22;6603;47.066;15.396;2023-02-08T10:35:38;0.50;99.90
13074;DHT22;6603;47.066;15.396;2023-02-08T10:38:25;0.70;99.90
13074;DHT22;6603;47.066;15.396;2023-02-08T10:40:57;0.70;99.90
13074;DHT22;6603;47.066;15.396;2023-02-08T10:46:39;0.60;50.70
13074;DHT22;6603;47.066;15.396;2023-02-08T10:49:20;0.60;58.00
13074;DHT22;6603;47.066;15.396;2023-02-08T10:51:48;0.60;99.90
13074;DHT22;6603;47.066;15.396;2023-02-08T10:54:15;0.60;98.60
13074;DHT22;6603;47.066;15.396;2023-02-08T10:57:02;0.60;77.00
13074;DHT22;6603;47.066;15.396;2023-02-08T10:59:34;0.70;46.20
13074;DHT22;6603;47.066;15.396;2023-02-08T11:02:07;0.40;35.30
13074;DHT22;6603;47.066;15.396;2023-02-08T11:04:58;0.40;47.30
13074;DHT22;6603;47.066;15.396;2023-02-08T11:07:25;0.20;4.70
13074;DHT22;6603;47.066;15.396;2023-02-08T11:09:52;0.40;52.50
13074;DHT22;6603;47.066;15.396;2023-02-08T11:12:20;0.70;56.20
13074;DHT22;6603;47.066;15.396;2023-02-08T11:14:49;0.60;1.90
13074;DHT22;6603;47.066;15.396;2023-02-08T11:17:34;0.70;1.00
13074;DHT22;6603;47.066;15.396;2023-02-08T11:20:00;0.50;1.00
13074;DHT22;6603;47.066;15.396;2023-02-08T11:22:28;0.40;1.00
13074;DHT22;6603;47.066;15.396;2023-02-08T11:25:02;0.30;1.00
13074;DHT22;6603;47.066;15.396;2023-02-08T11:27:41;0.40;1.00
13074;DHT22;6603;47.066;15.396;2023-02-08T11:32:43;0.50;1.00
13074;DHT22;6603;47.066;15.396;2023-02-08T11:37:46;0.30;1.00
13074;DHT22;6603;47.066;15.396;2023-02-08T11:40:19;0.40;1.00
13074;DHT22;6603;47.066;15.396;2023-02-08T11:42:45;0.50;1.00
13074;DHT22;6603;47.066;15.396;2023-02-08T11:45:28;0.50;1.00
13074;DHT22;6603;47.066;15.396;2023-02-08T11:47:55;0.50;1.00
13074;DHT22;6603;47.066;15.396;2023-02-08T11:50:29;0.70;1.00
13074;DHT22;6603;47.066;15.396;2023-02-08T11:53:00;0.90;1.00
13074;DHT22;6603;47.066;15.396;2023-02-08T11:55:29;1.00;1.00
13074;DHT22;6603;47.066;15.396;2023-02-08T11:58:19;1.10;1.00
13074;DHT22;6603;47.066;15.396;2023-02-08T12:01:14;1.10;1.00
13074;DHT22;6603;47.066;15.396;2023-02-08T12:03:43;1.10;1.00
13074;DHT22;6603;47.066;15.396;2023-02-08T12:12:19;1.30;1.00
13074;DHT22;6603;47.066;15.396;2023-02-08T12:18:12;1.20;1.00
13074;DHT22;6603;47.066;15.396;2023-02-08T12:20:44;1.40;1.00
13074;DHT22;6603;47.066;15.396;2023-02-08T12:31:30;1.60;1.00
13074;DHT22;6603;47.066;15.396;2023-02-08T12:42:36;1.60;1.00
13074;DHT22;6603;47.066;15.396;2023-02-08T12:48:02;1.30;1.00
13074;DHT22;6603;47.066;15.396;2023-02-08T12:50:43;1.20;1.00
13074;DHT22;6603;47.066;15.396;2023-02-08T12:53:26;1.20;1.00
13074;DHT22;6603;47.066;15.396;2023-02-08T12:55:59;1.20;1.00
13074;DHT22;6603;47.066;15.396;2023-02-08T12:58:36;1.40;1.00
13074;DHT22;6603;47.066;15.396;2023-02-08T13:01:24;1.40;1.00
13074;DHT22;6603;47.066;15.396;2023-02-08T13:06:28;1.20;1.00
13074;DHT22;6603;47.066;15.396;2023-02-08T13:09:34;1.30;1.00
13074;DHT22;6603;47.066;15.396;2023-02-08T13:12:17;1.30;1.00
13074;DHT22;6603;47.066;15.396;2023-02-08T13:14:54;1.40;1.00
13074;DHT22;6603;47.066;15.396;2023-02-08T13:17:42;1.10;1.00
13074;DHT22;6603;47.066;15.396;2023-02-08T13:20:29;1.10;1.00
13074;DHT22;6603;47.066;15.396;2023-02-08T13:23:05;1.10;1.00
13074;DHT22;6603;47.066;15.396;2023-02-08T13:25:35;1.40;1.00
13074;DHT22;6603;47.066;15.396;2023-02-08T13:28:05;1.50;1.00
13074;DHT22;6603;47.066;15.396;2023-02-08T13:30:35;1.40;1.00
13074;DHT22;6603;47.066;15.396;2023-02-08T13:33:28;1.30;1.00
13074;DHT22;6603;47.066;15.396;2023-02-08T13:35:54;1.40;1.00
13074;DHT22;6603;47.066;15.396;2023-02-08T13:38:28;1.40;1.00
13074;DHT22;6603;47.066;15.396;2023-02-08T13:46:14;1.10;1.00
13074;DHT22;6603;47.066;15.396;2023-02-08T13:48:52;1.00;1.00
13074;DHT22;6603;47.066;15.396;2023-02-08T13:59:04;1.00;1.00
13074;DHT22;6603;47.066;15.396;2023-02-08T14:04:35;0.90;1.00
13074;DHT22;6603;47.066;15.396;2023-02-08T14:13:00;0.70;1.00
13074;DHT22;6603;47.066;15.396;2023-02-08T14:15:31;0.60;1.00
13074;DHT22;6603;47.066;15.396;2023-02-08T14:17:58;0.60;1.00
13074;DHT22;6603;47.066;15.396;2023-02-08T14:20:36;0.70;1.00
13074;DHT22;6603;47.066;15.396;2023-02-08T14:23:40;1.00;1.00
13074;DHT22;6603;47.066;15.396;2023-02-08T14:26:08;1.10;1.00
13074;DHT22;6603;47.066;15.396;2023-02-08T14:28:42;1.30;1.00
13074;DHT22;6603;47.066;15.396;2023-02-08T14:31:10;1.30;1.00
13074;DHT22;6603;47.066;15.396;2023-02-08T14:33:42;1.50;1.00
13074;DHT22;6603;47.066;15.396;2023-02-08T14:36:40;1.60;1.00
13074;DHT22;6603;47.066;15.396;2023-02-08T14:39:23;1.50;1.00
13074;DHT22;6603;47.066;15.396;2023-02-08T14:41:56;1.30;1.00
13074;DHT22;6603;47.066;15.396;2023-02-08T14:44:56;1.10;1.00
13074;DHT22;6603;47.066;15.396;2023-02-08T14:50:15;1.30;1.00
13074;DHT22;6603;47.066;15.396;2023-02-08T14:52:49;1.30;1.00
13074;DHT22;6603;47.066;15.396;2023-02-08T14:55:22;1.00;1.00
13074;DHT22;6603;47.066;15.396;2023-02-08T14:57:56;1.00;1.00
13074;DHT22;6603;47.066;15.396;2023-02-08T15:00:49;0.90;1.00
13074;DHT22;6603;47.066;15.396;2023-02-08T15:03:17;0.80;1.00
13074;DHT22;6603;47.066;15.396;2023-02-08T15:06:13;0.40;1.00
13074;DHT22;6603;47.066;15.396;2023-02-08T15:08:53;0.50;1.00
13074;DHT22;6603;47.066;15.396;2023-02-08T15:11:25;0.60;1.00
13074;DHT22;6603;47.066;15.396;2023-02-08T15:13:55;0.60;1.00
13074;DHT22;6603;47.066;15.396;2023-02-08T15:16:27;0.60;1.00
13074;DHT22;6603;47.066;15.396;2023-02-08T15:18:54;0.50;1.00
13074;DHT22;6603;47.066;15.396;2023-02-08T15:21:22;0.40;1.00
13074;DHT22;6603;47.066;15.396;2023-02-08T15:24:13;0.40;1.00
13074;DHT22;6603;47.066;15.396;2023-02-08T15:26:51;0.30;1.00
13074;DHT22;6603;47.066;15.396;2023-02-08T15:29:29;0.10;26.50
13074;DHT22;6603;47.066;15.396;2023-02-08T15:31:55;0.10;84.00
13074;DHT22;6603;47.066;15.396;2023-02-08T15:34:24;0.00;99.90
13074;DHT22;6603;47.066;15.396;2023-02-08T15:36:52;-0.20;99.90
13074;DHT22;6603;47.066;15.396;2023-02-08T15:39:36;-0.20;99.90
13074;DHT22;6603;47.066;15.396;2023-02-08T15:42:05;-0.30;99.90
13074;DHT22;6603;47.066;15.396;2023-02-08T15:44:41;-0.30;99.90
13074;DHT22;6603;47.066;15.396;2023-02-08T15:47:18;-0.30;99.90
13074;DHT22;6603;47.066;15.396;2023-02-08T15:49:50;-0.40;99.90
13074;DHT22;6603;47.066;15.396;2023-02-08T15:52:20;-0.50;1.00
13074;DHT22;6603;47.066;15.396;2023-02-08T15:54:47;-0.60;1.00
13074;DHT22;6603;47.066;15.396;2023-02-08T15:57:21;-0.70;1.00
13074;DHT22;6603;47.066;15.396;2023-02-08T15:59:54;-0.70;1.00
13074;DHT22;6603;47.066;15.396;2023-02-08T16:02:31;-0.70;1.00
13074;DHT22;6603;47.066;15.396;2023-02-08T16:04:59;-0.80;1.00
13074;DHT22;6603;47.066;15.396;2023-02-08T16:07:34;-0.70;1.00
13074;DHT22;6603;47.066;15.396;2023-02-08T16:10:02;-0.80;1.00
13074;DHT22;6603;47.066;15.396;2023-02-08T16:12:29;-0.80;1.00
13074;DHT22;6603;47.066;15.396;2023-02-08T16:14:56;-0.90;1.00
13074;DHT22;6603;47.066;15.396;2023-02-08T16:17:41;-0.80;99.90
13074;DHT22;6603;47.066;15.396;2023-02-08T16:20:43;-1.00;1.00
13074;DHT22;6603;47.066;15.396;2023-02-08T16:23:46;-1.10;1.00
13074;DHT22;6603;47.066;15.396;2023-02-08T16:26:25;-1.10;1.00
13074;DHT22;6603;47.066;15.396;2023-02-08T16:29:38;-1.00;47.50
13074;DHT22;6603;47.066;15.396;2023-02-08T16:31:46;-1.20;99.90
13074;DHT22;6603;47.066;15.396;2023-02-08T16:34:19;-1.20;99.90
13074;DHT22;6603;47.066;15.396;2023-02-08T16:36:51;-1.20;99.90
13074;DHT22;6603;47.066;15.396;2023-02-08T16:44:27;-1.30;99.90
13074;DHT22;6603;47.066;15.396;2023-02-08T16:46:58;-1.20;1.00
13074;DHT22;6603;47.066;15.396;2023-02-08T16:49:25;-1.20;1.00
13074;DHT22;6603;47.066;15.396;2023-02-08T16:51:58;-1.30;99.90
13074;DHT22;6603;47.066;15.396;2023-02-08T16:54:24;-1.10;1.00
13074;DHT22;6603;47.066;15.396;2023-02-08T16:56:52;-1.10;99.90
13074;DHT22;6603;47.066;15.396;2023-02-08T16:59:26;-1.00;1.00
13074;DHT22;6603;47.066;15.396;2023-02-08T17:01:52;-0.90;1.00
13074;DHT22;6603;47.066;15.396;2023-02-08T17:04:21;-0.80;1.00
13074;DHT22;6603;47.066;15.396;2023-02-08T17:06:47;-0.80;99.90
13074;DHT22;6603;47.066;15.396;2023-02-08T17:09:13;-0.70;99.90
13074;DHT22;6603;47.066;15.396;2023-02-08T17:11:39;-0.80;99.90
13074;DHT22;6603;47.066;15.396;2023-02-08T17:14:07;-0.80;99.90
13074;DHT22;6603;47.066;15.396;2023-02-08T17:16:36;-0.90;1.00
13074;DHT22;6603;47.066;15.396;2023-02-08T17:19:03;-0.90;1.00
13074;DHT22;6603;47.066;15.396;2023-02-08T17:21:29;-0.80;99.90
13074;DHT22;6603;47.066;15.396;2023-02-08T17:23:55;-0.90;99.90
13074;DHT22;6603;47.066;15.396;2023-02-08T17:26:27;-0.90;99.90
13074;DHT22;6603;47.066;15.396;2023-02-08T17:28:55;-0.80;99.90
13074;DHT22;6603;47.066;15.396;2023-02-08T17:31:22;-0.90;99.90
13074;DHT22;6603;47.066;15.396;2023-02-08T17:33:48;-0.90;99.90
13074;DHT22;6603;47.066;15.396;2023-02-08T17:36:16;-0.90;99.90
13074;DHT22;6603;47.066;15.396;2023-02-08T17:38:44;-0.90;1.00
13074;DHT22;6603;47.066;15.396;2023-02-08T17:41:15;-0.80;99.90
13074;DHT22;6603;47.066;15.396;2023-02-08T17:43:42;-0.80;99.90
13074;DHT22;6603;47.066;15.396;2023-02-08T17:46:16;-0.80;99.90
13074;DHT22;6603;47.066;15.396;2023-02-08T17:48:42;-0.80;99.90
13074;DHT22;6603;47.066;15.396;2023-02-08T17:51:09;-0.80;99.90
13074;DHT22;6603;47.066;15.396;2023-02-08T17:53:40;-0.90;98.80
13074;DHT22;6603;47.066;15.396;2023-02-08T17:56:16;-0.80;1.00
13074;DHT22;6603;47.066;15.396;2023-02-08T17:58:43;-0.80;1.00
13074;DHT22;6603;47.066;15.396;2023-02-08T18:01:16;-0.90;99.90
13074;DHT22;6603;47.066;15.396;2023-02-08T18:03:44;-0.90;99.90
13074;DHT22;6603;47.066;15.396;2023-02-08T18:06:10;-0.90;99.90
13074;DHT22;6603;47.066;15.396;2023-02-08T18:08:37;-0.90;99.90
13074;DHT22;6603;47.066;15.396;2023-02-08T18:11:04;-1.00;99.90
13074;DHT22;6603;47.066;15.396;2023-02-08T18:13:31;-1.00;99.90
13074;DHT22;6603;47.066;15.396;2023-02-08T18:15:58;-1.00;99.90
13074;DHT22;6603;47.066;15.396;2023-02-08T18:18:30;-1.10;99.90
13074;DHT22;6603;47.066;15.396;2023-02-08T18:20:56;-1.00;99.90
13074;DHT22;6603;47.066;15.396;2023-02-08T18:23:21;-1.00;99.90
13074;DHT22;6603;47.066;15.396;2023-02-08T18:25:47;-1.00;99.90
13074;DHT22;6603;47.066;15.396;2023-02-08T18:28:13;-0.90;1.00
13074;DHT22;6603;47.066;15.396;2023-02-08T18:30:41;-1.00;1.00
13074;DHT22;6603;47.066;15.396;2023-02-08T18:33:08;-1.10;1.00